sensor_id;sensor_type;location;lat;lon;timestamp;temperature;humidity
20921;DHT22;10620;52.472;21.028;2022-09-12T00:03:53;11.00;99.90
20921;DHT22;10620;52.472;21.028;2022-09-12T00:06:23;10.90;99.90
20921;DHT22;10620;52.472;21.028;2022-09-12T00:08:53;10.80;99.90
20921;DHT22;10620;52.472;21.028;2022-09-12T00:11:25;10.70;99.90
20921;DHT22;10620;52.472;21.028;2022-09-12T00:13:54;10.60;99.90
20921;DHT22;10620;52.472;21.028;2022-09-12T00:16:24;10.60;99.90
20921;DHT22;10620;52.472;21.028;2022-09-12T00:18:54;10.60;99.90
20921;DHT22;10620;52.472;21.028;2022-09-12T00:21:23;10.50;99.90
20921;DHT22;10620;52.472;21.028;2022-09-12T00:28:49;10.50;99.90
20921;DHT22;10620;52.472;21.028;2022-09-12T00:31:21;10.50;99.90
20921;DHT22;10620;52.472;21.028;2022-09-12T00:33:51;10.40;99.90
20921;DHT22;10620;52.472;21.028;2022-09-12T00:36:21;10.40;99.90
20921;DHT22;10620;52.472;21.028;2022-09-12T00:38:51;10.40;99.90
20921;DHT22;10620;52.472;21.028;2022-09-12T00:41:22;10.40;99.90
20921;DHT22;10620;52.472;21.028;2022-09-12T00:43:51;10.50;99.90
20921;DHT22;10620;52.472;21.028;2022-09-12T00:51:17;10.70;99.90
20921;DHT22;10620;52.472;21.028;2022-09-12T00:53:48;10.60;99.90
20921;DHT22;10620;52.472;21.028;2022-09-12T00:56:17;10.60;99.90
20921;DHT22;10620;52.472;21.028;2022-09-12T00:58:47;10.60;99.90
20921;DHT22;10620;52.472;21.028;2022-09-12T01:01:17;10.60;99.90
20921;DHT22;10620;52.472;21.028;2022-09-12T01:03:46;10.60;99.90
20921;DHT22;10620;52.472;21.028;2022-09-12T01:06:15;10.60;99.90
20921;DHT22;10620;52.472;21.028;2022-09-12T01:08:45;10.70;99.90
20921;DHT22;10620;52.472;21.028;2022-09-12T01:11:16;10.60;99.90
20921;DHT22;10620;52.472;21.028;2022-09-12T01:13:45;10.70;99.90
20921;DHT22;10620;52.472;21.028;2022-09-12T01:16:15;10.70;99.90
20921;DHT22;10620;52.472;21.028;2022-09-12T01:18:49;10.70;99.90
20921;DHT22;10620;52.472;21.028;2022-09-12T01:21:22;10.70;99.90
20921;DHT22;10620;52.472;21.028;2022-09-12T01:26:56;10.60;99.90
20921;DHT22;10620;52.472;21.028;2022-09-12T01:29:37;10.70;99.90
20921;DHT22;10620;52.472;21.028;2022-09-12T01:32:11;10.70;99.90
20921;DHT22;10620;52.472;21.028;2022-09-12T01:34:42;10.70;99.90
20921;DHT22;10620;52.472;21.028;2022-09-12T01:37:14;10.60;99.90
20921;DHT22;10620;52.472;21.028;2022-09-12T01:39:47;10.60;99.90
20921;DHT22;10620;52.472;21.028;2022-09-12T01:42:19;10.70;99.90
20921;DHT22;10620;52.472;21.028;2022-09-12T01:44:52;10.60;99.90
20921;DHT22;10620;52.472;21.028;2022-09-12T01:47:26;10.60;99.90
20921;DHT22;10620;52.472;21.028;2022-09-12T01:49:58;10.60;99.90
20921;DHT22;10620;52.472;21.028;2022-09-12T01:52:28;10.50;99.90
20921;DHT22;10620;52.472;21.028;2022-09-12T01:55:04;10.50;99.90
20921;DHT22;10620;52.472;21.028;2022-09-12T01:57:37;10.50;99.90
20921;DHT22;10620;52.472;21.028;2022-09-12T03:07:27;10.40;99.90
20921;DHT22;10620;52.472;21.028;2022-09-12T03:10:02;10.40;99.90
20921;DHT22;10620;52.472;21.028;2022-09-12T03:12:39;10.40;99.90
20921;DHT22;10620;52.472;21.028;2022-09-12T03:15:16;10.30;99.90
20921;DHT22;10620;52.472;21.028;2022-09-12T03:17:52;10.30;99.90
20921;DHT22;10620;52.472;21.028;2022-09-12T03:20:28;10.30;99.90
20921;DHT22;10620;52.472;21.028;2022-09-12T03:23:01;10.30;99.90
20921;DHT22;10620;52.472;21.028;2022-09-12T03:25:31;10.30;99.90
20921;DHT22;10620;52.472;21.028;2022-09-12T03:28:02;10.20;99.90
20921;DHT22;10620;52.472;21.028;2022-09-12T03:30:36;10.10;99.90
20921;DHT22;10620;52.472;21.028;2022-09-12T03:33:05;10.20;99.90
20921;DHT22;10620;52.472;21.028;2022-09-12T03:35:33;10.20;99.90
20921;DHT22;10620;52.472;21.028;2022-09-12T03:38:04;10.20;99.90
20921;DHT22;10620;52.472;21.028;2022-09-12T03:40:34;10.20;99.90
20921;DHT22;10620;52.472;21.028;2022-09-12T03:43:03;10.20;99.90
20921;DHT22;10620;52.472;21.028;2022-09-12T03:45:32;10.10;99.90
20921;DHT22;10620;52.472;21.028;2022-09-12T03:48:01;10.10;99.90
20921;DHT22;10620;52.472;21.028;2022-09-12T03:50:30;10.10;99.90
20921;DHT22;10620;52.472;21.028;2022-09-12T03:52:58;10.10;99.90
20921;DHT22;10620;52.472;21.028;2022-09-12T03:55:28;10.10;99.90
20921;DHT22;10620;52.472;21.028;2022-09-12T03:57:57;10.10;99.90
20921;DHT22;10620;52.472;21.028;2022-09-12T04:00:26;10.10;99.90
20921;DHT22;10620;52.472;21.028;2022-09-12T04:05:24;10.10;99.90
20921;DHT22;10620;52.472;21.028;2022-09-12T04:07:52;10.00;99.90
20921;DHT22;10620;52.472;21.028;2022-09-12T04:10:21;10.10;99.90
20921;DHT22;10620;52.472;21.028;2022-09-12T04:12:51;10.10;99.90
20921;DHT22;10620;52.472;21.028;2022-09-12T04:15:20;10.00;99.90
20921;DHT22;10620;52.472;21.028;2022-09-12T04:32:43;10.20;99.90
20921;DHT22;10620;52.472;21.028;2022-09-12T04:35:11;10.10;99.90
20921;DHT22;10620;52.472;21.028;2022-09-12T04:37:40;10.10;99.90
20921;DHT22;10620;52.472;21.028;2022-09-12T04:40:09;10.10;99.90
20921;DHT22;10620;52.472;21.028;2022-09-12T04:45:06;10.60;99.90
20921;DHT22;10620;52.472;21.028;2022-09-12T04:47:35;10.20;99.90
20921;DHT22;10620;52.472;21.028;2022-09-12T04:50:06;10.20;99.90
20921;DHT22;10620;52.472;21.028;2022-09-12T04:52:36;10.30;99.90
20921;DHT22;10620;52.472;21.028;2022-09-12T04:57:33;9.80;99.90
20921;DHT22;10620;52.472;21.028;2022-09-12T05:00:03;10.00;99.90
20921;DHT22;10620;52.472;21.028;2022-09-12T05:02:36;10.00;99.90
20921;DHT22;10620;52.472;21.028;2022-09-12T05:10:03;10.10;99.90
20921;DHT22;10620;52.472;21.028;2022-09-12T05:15:02;10.10;99.90
20921;DHT22;10620;52.472;21.028;2022-09-12T05:17:31;10.20;99.90
20921;DHT22;10620;52.472;21.028;2022-09-12T05:19:59;10.10;99.90
20921;DHT22;10620;52.472;21.028;2022-09-12T05:27:27;10.50;99.90
20921;DHT22;10620;52.472;21.028;2022-09-12T05:29:55;9.40;99.90
20921;DHT22;10620;52.472;21.028;2022-09-12T05:32:25;10.10;99.90
20921;DHT22;10620;52.472;21.028;2022-09-12T05:34:53;10.10;99.90
20921;DHT22;10620;52.472;21.028;2022-09-12T05:37:22;10.10;99.90
20921;DHT22;10620;52.472;21.028;2022-09-12T06:19:38;10.20;99.90
20921;DHT22;10620;52.472;21.028;2022-09-12T06:24:36;10.60;99.90
20921;DHT22;10620;52.472;21.028;2022-09-12T06:37:02;11.00;99.90
20921;DHT22;10620;52.472;21.028;2022-09-12T06:39:31;11.00;99.90
20921;DHT22;10620;52.472;21.028;2022-09-12T06:41:59;11.00;99.90
20921;DHT22;10620;52.472;21.028;2022-09-12T06:44:33;11.00;99.90
20921;DHT22;10620;52.472;21.028;2022-09-12T06:47:01;11.00;99.90
20921;DHT22;10620;52.472;21.028;2022-09-12T06:49:30;11.10;99.90
20921;DHT22;10620;52.472;21.028;2022-09-12T06:52:01;11.10;99.90
20921;DHT22;10620;52.472;21.028;2022-09-12T06:54:32;11.10;99.90
20921;DHT22;10620;52.472;21.028;2022-09-12T06:57:01;11.00;99.90
20921;DHT22;10620;52.472;21.028;2022-09-12T06:59:30;11.00;99.90
20921;DHT22;10620;52.472;21.028;2022-09-12T07:01:59;11.00;99.90
20921;DHT22;10620;52.472;21.028;2022-09-12T07:04:28;11.10;99.90
20921;DHT22;10620;52.472;21.028;2022-09-12T07:06:56;11.10;99.90
20921;DHT22;10620;52.472;21.028;2022-09-12T07:09:26;11.10;99.90
20921;DHT22;10620;52.472;21.028;2022-09-12T07:11:57;11.20;99.90
20921;DHT22;10620;52.472;21.028;2022-09-12T07:14:27;11.30;99.90
20921;DHT22;10620;52.472;21.028;2022-09-12T07:16:55;11.30;99.90
20921;DHT22;10620;52.472;21.028;2022-09-12T07:19:24;11.30;99.90
20921;DHT22;10620;52.472;21.028;2022-09-12T07:21:53;11.40;99.90
20921;DHT22;10620;52.472;21.028;2022-09-12T07:24:26;11.50;99.90
20921;DHT22;10620;52.472;21.028;2022-09-12T07:26:55;11.40;99.90
20921;DHT22;10620;52.472;21.028;2022-09-12T07:29:24;11.30;99.90
20921;DHT22;10620;52.472;21.028;2022-09-12T07:32:08;11.40;99.90
20921;DHT22;10620;52.472;21.028;2022-09-12T07:37:07;11.60;99.90
20921;DHT22;10620;52.472;21.028;2022-09-12T07:39:37;11.70;99.90
20921;DHT22;10620;52.472;21.028;2022-09-12T07:42:05;11.70;99.90
20921;DHT22;10620;52.472;21.028;2022-09-12T07:44:34;11.90;99.90
20921;DHT22;10620;52.472;21.028;2022-09-12T07:47:03;11.90;99.90
20921;DHT22;10620;52.472;21.028;2022-09-12T07:49:32;11.90;99.90
20921;DHT22;10620;52.472;21.028;2022-09-12T07:52:00;12.10;99.90
20921;DHT22;10620;52.472;21.028;2022-09-12T07:54:29;12.20;99.90
20921;DHT22;10620;52.472;21.028;2022-09-12T07:57:01;12.20;99.90
20921;DHT22;10620;52.472;21.028;2022-09-12T07:59:29;12.20;99.90
20921;DHT22;10620;52.472;21.028;2022-09-12T08:04:46;12.30;99.90
20921;DHT22;10620;52.472;21.028;2022-09-12T08:07:15;12.30;99.90
20921;DHT22;10620;52.472;21.028;2022-09-12T08:09:45;12.20;99.90
20921;DHT22;10620;52.472;21.028;2022-09-12T08:12:16;12.30;99.90
20921;DHT22;10620;52.472;21.028;2022-09-12T08:14:46;12.30;99.90
20921;DHT22;10620;52.472;21.028;2022-09-12T08:17:15;12.30;99.90
20921;DHT22;10620;52.472;21.028;2022-09-12T08:19:44;12.60;99.90
20921;DHT22;10620;52.472;21.028;2022-09-12T08:22:13;12.40;99.90
20921;DHT22;10620;52.472;21.028;2022-09-12T08:24:41;12.40;99.90
20921;DHT22;10620;52.472;21.028;2022-09-12T08:27:10;12.70;99.90
20921;DHT22;10620;52.472;21.028;2022-09-12T08:32:09;12.80;99.90
20921;DHT22;10620;52.472;21.028;2022-09-12T08:34:38;12.80;99.90
20921;DHT22;10620;52.472;21.028;2022-09-12T08:37:06;12.80;99.90
20921;DHT22;10620;52.472;21.028;2022-09-12T08:39:35;12.80;99.90
20921;DHT22;10620;52.472;21.028;2022-09-12T08:42:04;12.80;99.90
20921;DHT22;10620;52.472;21.028;2022-09-12T08:44:37;12.90;99.90
20921;DHT22;10620;52.472;21.028;2022-09-12T08:47:13;13.20;99.90
20921;DHT22;10620;52.472;21.028;2022-09-12T08:49:50;13.10;99.90
20921;DHT22;10620;52.472;21.028;2022-09-12T08:52:21;13.10;99.90
20921;DHT22;10620;52.472;21.028;2022-09-12T08:54:51;13.20;99.90
20921;DHT22;10620;52.472;21.028;2022-09-12T08:57:22;13.40;99.90
20921;DHT22;10620;52.472;21.028;2022-09-12T08:59:51;13.60;99.90
20921;DHT22;10620;52.472;21.028;2022-09-12T09:02:29;13.70;99.90
20921;DHT22;10620;52.472;21.028;2022-09-12T09:05:02;13.80;99.90
20921;DHT22;10620;52.472;21.028;2022-09-12T09:07:40;13.60;99.90
20921;DHT22;10620;52.472;21.028;2022-09-12T09:10:16;13.60;99.90
20921;DHT22;10620;52.472;21.028;2022-09-12T09:12:51;13.40;99.90
20921;DHT22;10620;52.472;21.028;2022-09-12T09:15:28;13.40;99.90
20921;DHT22;10620;52.472;21.028;2022-09-12T09:18:01;13.70;99.90
20921;DHT22;10620;52.472;21.028;2022-09-12T09:25:36;13.50;99.90
20921;DHT22;10620;52.472;21.028;2022-09-12T09:28:11;13.80;99.90
20921;DHT22;10620;52.472;21.028;2022-09-12T09:57:59;13.80;99.90
20921;DHT22;10620;52.472;21.028;2022-09-12T10:00:30;13.80;99.90
20921;DHT22;10620;52.472;21.028;2022-09-12T10:05:28;13.60;99.90
20921;DHT22;10620;52.472;21.028;2022-09-12T10:07:57;13.50;99.90
20921;DHT22;10620;52.472;21.028;2022-09-12T10:10:26;13.80;99.90
20921;DHT22;10620;52.472;21.028;2022-09-12T10:15:25;13.70;99.90
20921;DHT22;10620;52.472;21.028;2022-09-12T10:17:55;13.80;99.90
20921;DHT22;10620;52.472;21.028;2022-09-12T10:20:28;13.70;99.90
20921;DHT22;10620;52.472;21.028;2022-09-12T10:22:58;13.60;99.90
20921;DHT22;10620;52.472;21.028;2022-09-12T10:25:27;13.60;99.90
20921;DHT22;10620;52.472;21.028;2022-09-12T10:27:57;13.60;99.90
20921;DHT22;10620;52.472;21.028;2022-09-12T10:30:28;13.60;99.90
20921;DHT22;10620;52.472;21.028;2022-09-12T10:33:03;13.60;99.90
20921;DHT22;10620;52.472;21.028;2022-09-12T10:35:41;13.90;99.90
20921;DHT22;10620;52.472;21.028;2022-09-12T10:38:12;14.10;99.90
20921;DHT22;10620;52.472;21.028;2022-09-12T10:40:43;14.30;99.90
20921;DHT22;10620;52.472;21.028;2022-09-12T10:43:15;14.30;99.90
20921;DHT22;10620;52.472;21.028;2022-09-12T10:45:46;14.60;99.90
20921;DHT22;10620;52.472;21.028;2022-09-12T10:48:21;14.90;99.90
20921;DHT22;10620;52.472;21.028;2022-09-12T10:50:52;14.90;99.90
20921;DHT22;10620;52.472;21.028;2022-09-12T10:53:21;14.90;99.90
20921;DHT22;10620;52.472;21.028;2022-09-12T10:55:58;14.80;99.90
20921;DHT22;10620;52.472;21.028;2022-09-12T10:58:37;15.00;99.90
20921;DHT22;10620;52.472;21.028;2022-09-12T11:11:05;14.40;99.90
20921;DHT22;10620;52.472;21.028;2022-09-12T12:10:49;13.90;99.90
20921;DHT22;10620;52.472;21.028;2022-09-12T12:13:20;13.90;99.90
20921;DHT22;10620;52.472;21.028;2022-09-12T12:15:50;13.90;99.90
20921;DHT22;10620;52.472;21.028;2022-09-12T12:18:22;14.00;99.90
20921;DHT22;10620;52.472;21.028;2022-09-12T12:20:51;13.90;99.90
20921;DHT22;10620;52.472;21.028;2022-09-12T12:25:52;14.10;99.90
20921;DHT22;10620;52.472;21.028;2022-09-12T12:30:59;14.20;99.90
